sensor_id;sensor_type;location;lat;lon;timestamp;temperature;humidity
73112;HTU21D;61301;51.956;5.876;2023-04-24T00:00:57;13.14;69.09
73112;HTU21D;61301;51.956;5.876;2023-04-24T00:03:24;13.18;69.06
73112;HTU21D;61301;51.956;5.876;2023-04-24T00:05:51;13.09;69.23
73112;HTU21D;61301;51.956;5.876;2023-04-24T00:08:18;13.08;69.16
73112;HTU21D;61301;51.956;5.876;2023-04-24T00:10:44;13.22;69.11
73112;HTU21D;61301;51.956;5.876;2023-04-24T00:13:10;13.08;69.43
73112;HTU21D;61301;51.956;5.876;2023-04-24T00:15:36;13.01;69.68
73112;HTU21D;61301;51.956;5.876;2023-04-24T00:18:02;12.99;69.55
73112;HTU21D;61301;51.956;5.876;2023-04-24T00:20:28;13.03;69.64
73112;HTU21D;61301;51.956;5.876;2023-04-24T00:22:58;13.06;69.68
73112;HTU21D;61301;51.956;5.876;2023-04-24T00:25:24;13.03;69.76
73112;HTU21D;61301;51.956;5.876;2023-04-24T00:27:50;13.14;69.46
73112;HTU21D;61301;51.956;5.876;2023-04-24T00:30:16;13.10;69.39
73112;HTU21D;61301;51.956;5.876;2023-04-24T00:32:42;12.96;69.74
73112;HTU21D;61301;51.956;5.876;2023-04-24T00:35:08;13.09;69.58
73112;HTU21D;61301;51.956;5.876;2023-04-24T00:37:34;12.94;69.83
73112;HTU21D;61301;51.956;5.876;2023-04-24T00:40:00;13.06;69.39
73112;HTU21D;61301;51.956;5.876;2023-04-24T00:42:26;12.99;69.45
73112;HTU21D;61301;51.956;5.876;2023-04-24T00:44:52;13.03;69.72
73112;HTU21D;61301;51.956;5.876;2023-04-24T00:47:19;13.04;69.82
73112;HTU21D;61301;51.956;5.876;2023-04-24T00:49:47;12.87;70.68
73112;HTU21D;61301;51.956;5.876;2023-04-24T00:52:13;12.99;70.46
73112;HTU21D;61301;51.956;5.876;2023-04-24T00:54:44;13.06;70.39
73112;HTU21D;61301;51.956;5.876;2023-04-24T00:57:11;13.01;70.70
73112;HTU21D;61301;51.956;5.876;2023-04-24T00:59:38;13.03;70.70
73112;HTU21D;61301;51.956;5.876;2023-04-24T01:02:07;12.97;71.00
73112;HTU21D;61301;51.956;5.876;2023-04-24T01:04:34;12.96;71.08
73112;HTU21D;61301;51.956;5.876;2023-04-24T01:07:00;12.89;71.32
73112;HTU21D;61301;51.956;5.876;2023-04-24T01:09:27;12.96;71.20
73112;HTU21D;61301;51.956;5.876;2023-04-24T01:11:53;12.87;71.30
73112;HTU21D;61301;51.956;5.876;2023-04-24T01:14:20;12.89;71.14
73112;HTU21D;61301;51.956;5.876;2023-04-24T01:16:48;12.99;70.85
73112;HTU21D;61301;51.956;5.876;2023-04-24T01:19:15;12.94;71.05
73112;HTU21D;61301;51.956;5.876;2023-04-24T01:21:42;12.96;70.93
73112;HTU21D;61301;51.956;5.876;2023-04-24T01:24:09;12.95;70.88
73112;HTU21D;61301;51.956;5.876;2023-04-24T01:26:35;12.94;70.84
73112;HTU21D;61301;51.956;5.876;2023-04-24T01:29:01;12.93;70.97
73112;HTU21D;61301;51.956;5.876;2023-04-24T01:31:27;12.96;70.52
73112;HTU21D;61301;51.956;5.876;2023-04-24T01:33:54;12.97;70.46
73112;HTU21D;61301;51.956;5.876;2023-04-24T01:36:21;13.04;70.22
73112;HTU21D;61301;51.956;5.876;2023-04-24T01:38:47;13.10;70.08
73112;HTU21D;61301;51.956;5.876;2023-04-24T01:41:13;13.17;69.72
73112;HTU21D;61301;51.956;5.876;2023-04-24T01:43:39;13.11;69.93
73112;HTU21D;61301;51.956;5.876;2023-04-24T01:46:06;13.14;69.69
73112;HTU21D;61301;51.956;5.876;2023-04-24T01:48:35;13.11;69.69
73112;HTU21D;61301;51.956;5.876;2023-04-24T01:51:01;13.16;69.71
73112;HTU21D;61301;51.956;5.876;2023-04-24T01:53:29;13.29;69.31
73112;HTU21D;61301;51.956;5.876;2023-04-24T01:55:55;13.36;69.29
73112;HTU21D;61301;51.956;5.876;2023-04-24T01:58:22;13.52;68.71
73112;HTU21D;61301;51.956;5.876;2023-04-24T02:00:48;13.31;69.40
73112;HTU21D;61301;51.956;5.876;2023-04-24T02:03:14;13.26;69.62
73112;HTU21D;61301;51.956;5.876;2023-04-24T02:05:43;13.16;70.06
73112;HTU21D;61301;51.956;5.876;2023-04-24T02:08:10;13.07;70.14
73112;HTU21D;61301;51.956;5.876;2023-04-24T02:10:37;12.94;70.64
73112;HTU21D;61301;51.956;5.876;2023-04-24T02:13:04;12.85;70.66
73112;HTU21D;61301;51.956;5.876;2023-04-24T02:15:30;13.01;70.13
73112;HTU21D;61301;51.956;5.876;2023-04-24T02:17:56;13.03;69.93
73112;HTU21D;61301;51.956;5.876;2023-04-24T02:20:23;13.01;69.90
73112;HTU21D;61301;51.956;5.876;2023-04-24T02:22:49;13.11;69.49
73112;HTU21D;61301;51.956;5.876;2023-04-24T02:25:16;13.09;69.65
73112;HTU21D;61301;51.956;5.876;2023-04-24T02:27:42;13.19;69.29
73112;HTU21D;61301;51.956;5.876;2023-04-24T02:30:08;13.04;69.60
73112;HTU21D;61301;51.956;5.876;2023-04-24T02:32:34;13.09;69.50
73112;HTU21D;61301;51.956;5.876;2023-04-24T02:35:01;13.17;69.33
73112;HTU21D;61301;51.956;5.876;2023-04-24T02:37:27;13.12;69.57
73112;HTU21D;61301;51.956;5.876;2023-04-24T02:39:53;13.12;69.63
73112;HTU21D;61301;51.956;5.876;2023-04-24T02:42:19;13.04;70.00
73112;HTU21D;61301;51.956;5.876;2023-04-24T02:44:45;13.08;69.81
73112;HTU21D;61301;51.956;5.876;2023-04-24T02:47:11;13.15;69.58
73112;HTU21D;61301;51.956;5.876;2023-04-24T02:49:37;13.06;70.01
73112;HTU21D;61301;51.956;5.876;2023-04-24T02:52:03;13.10;70.14
73112;HTU21D;61301;51.956;5.876;2023-04-24T02:54:29;13.04;70.46
73112;HTU21D;61301;51.956;5.876;2023-04-24T02:56:55;12.90;71.04
73112;HTU21D;61301;51.956;5.876;2023-04-24T02:59:22;13.05;70.64
73112;HTU21D;61301;51.956;5.876;2023-04-24T03:01:48;13.01;70.67
73112;HTU21D;61301;51.956;5.876;2023-04-24T03:04:14;12.91;71.05
73112;HTU21D;61301;51.956;5.876;2023-04-24T03:06:41;12.97;70.81
73112;HTU21D;61301;51.956;5.876;2023-04-24T03:09:07;13.06;70.52
73112;HTU21D;61301;51.956;5.876;2023-04-24T03:11:33;13.05;70.58
73112;HTU21D;61301;51.956;5.876;2023-04-24T03:14:00;13.04;70.64
73112;HTU21D;61301;51.956;5.876;2023-04-24T03:16:26;13.04;70.71
73112;HTU21D;61301;51.956;5.876;2023-04-24T03:18:54;13.02;70.85
73112;HTU21D;61301;51.956;5.876;2023-04-24T03:21:21;12.97;70.87
73112;HTU21D;61301;51.956;5.876;2023-04-24T03:23:48;12.94;71.01
73112;HTU21D;61301;51.956;5.876;2023-04-24T03:26:14;12.86;71.13
73112;HTU21D;61301;51.956;5.876;2023-04-24T03:28:51;12.84;71.22
73112;HTU21D;61301;51.956;5.876;2023-04-24T03:31:17;12.90;70.94
73112;HTU21D;61301;51.956;5.876;2023-04-24T03:33:44;12.96;70.78
73112;HTU21D;61301;51.956;5.876;2023-04-24T03:36:10;12.81;71.33
73112;HTU21D;61301;51.956;5.876;2023-04-24T03:38:39;12.73;71.38
73112;HTU21D;61301;51.956;5.876;2023-04-24T03:41:27;12.72;71.44
73112;HTU21D;61301;51.956;5.876;2023-04-24T03:43:58;12.76;71.22
73112;HTU21D;61301;51.956;5.876;2023-04-24T03:46:25;12.69;71.33
73112;HTU21D;61301;51.956;5.876;2023-04-24T03:48:54;12.73;71.07
73112;HTU21D;61301;51.956;5.876;2023-04-24T03:51:25;12.63;71.41
73112;HTU21D;61301;51.956;5.876;2023-04-24T03:53:55;12.63;71.26
73112;HTU21D;61301;51.956;5.876;2023-04-24T03:56:23;12.62;71.36
73112;HTU21D;61301;51.956;5.876;2023-04-24T03:58:50;12.53;71.42
73112;HTU21D;61301;51.956;5.876;2023-04-24T04:01:16;12.52;71.45
73112;HTU21D;61301;51.956;5.876;2023-04-24T04:03:57;12.41;71.58
73112;HTU21D;61301;51.956;5.876;2023-04-24T04:06:25;12.46;71.32
73112;HTU21D;61301;51.956;5.876;2023-04-24T04:08:53;12.42;71.38
73112;HTU21D;61301;51.956;5.876;2023-04-24T04:11:19;12.46;71.23
73112;HTU21D;61301;51.956;5.876;2023-04-24T04:13:46;12.42;71.19
73112;HTU21D;61301;51.956;5.876;2023-04-24T04:16:15;12.44;71.09
73112;HTU21D;61301;51.956;5.876;2023-04-24T04:18:43;12.34;71.32
73112;HTU21D;61301;51.956;5.876;2023-04-24T04:21:11;12.26;71.46
73112;HTU21D;61301;51.956;5.876;2023-04-24T04:23:37;12.35;71.00
73112;HTU21D;61301;51.956;5.876;2023-04-24T04:26:17;12.35;70.81
73112;HTU21D;61301;51.956;5.876;2023-04-24T04:28:59;12.25;71.12
73112;HTU21D;61301;51.956;5.876;2023-04-24T04:31:27;12.37;70.77
73112;HTU21D;61301;51.956;5.876;2023-04-24T04:33:55;12.41;70.58
73112;HTU21D;61301;51.956;5.876;2023-04-24T04:36:21;12.34;70.61
73112;HTU21D;61301;51.956;5.876;2023-04-24T04:38:53;12.41;70.64
73112;HTU21D;61301;51.956;5.876;2023-04-24T04:41:41;12.53;70.21
73112;HTU21D;61301;51.956;5.876;2023-04-24T04:44:09;12.61;69.90
73112;HTU21D;61301;51.956;5.876;2023-04-24T04:46:36;12.70;69.58
73112;HTU21D;61301;51.956;5.876;2023-04-24T04:49:18;12.62;69.85
73112;HTU21D;61301;51.956;5.876;2023-04-24T04:51:45;12.67;69.68
73112;HTU21D;61301;51.956;5.876;2023-04-24T04:54:11;12.64;69.65
73112;HTU21D;61301;51.956;5.876;2023-04-24T04:56:38;12.63;69.71
73112;HTU21D;61301;51.956;5.876;2023-04-24T04:59:04;12.45;70.13
73112;HTU21D;61301;51.956;5.876;2023-04-24T05:01:32;12.49;70.21
73112;HTU21D;61301;51.956;5.876;2023-04-24T05:03:58;12.42;70.50
73112;HTU21D;61301;51.956;5.876;2023-04-24T05:06:25;12.53;70.27
73112;HTU21D;61301;51.956;5.876;2023-04-24T05:08:53;12.51;70.41
73112;HTU21D;61301;51.956;5.876;2023-04-24T05:11:39;12.36;70.79
73112;HTU21D;61301;51.956;5.876;2023-04-24T05:14:05;12.45;70.72
73112;HTU21D;61301;51.956;5.876;2023-04-24T05:16:35;12.35;71.03
73112;HTU21D;61301;51.956;5.876;2023-04-24T05:19:03;12.38;70.98
73112;HTU21D;61301;51.956;5.876;2023-04-24T05:21:34;12.31;71.42
73112;HTU21D;61301;51.956;5.876;2023-04-24T05:24:01;12.47;70.94
73112;HTU21D;61301;51.956;5.876;2023-04-24T05:27:02;12.64;70.39
73112;HTU21D;61301;51.956;5.876;2023-04-24T05:29:35;12.67;70.19
73112;HTU21D;61301;51.956;5.876;2023-04-24T05:32:03;12.75;69.94
73112;HTU21D;61301;51.956;5.876;2023-04-24T05:34:30;12.70;70.15
73112;HTU21D;61301;51.956;5.876;2023-04-24T05:36:57;12.60;70.45
73112;HTU21D;61301;51.956;5.876;2023-04-24T05:39:23;12.62;70.50
73112;HTU21D;61301;51.956;5.876;2023-04-24T05:41:51;12.70;70.38
73112;HTU21D;61301;51.956;5.876;2023-04-24T05:44:17;12.63;70.45
73112;HTU21D;61301;51.956;5.876;2023-04-24T05:46:43;12.72;70.29
73112;HTU21D;61301;51.956;5.876;2023-04-24T05:49:10;12.72;70.31
73112;HTU21D;61301;51.956;5.876;2023-04-24T05:51:36;12.77;70.15
73112;HTU21D;61301;51.956;5.876;2023-04-24T05:54:03;12.79;70.07
73112;HTU21D;61301;51.956;5.876;2023-04-24T05:56:29;12.82;69.88
73112;HTU21D;61301;51.956;5.876;2023-04-24T05:58:56;12.97;69.68
73112;HTU21D;61301;51.956;5.876;2023-04-24T06:01:22;12.92;69.71
73112;HTU21D;61301;51.956;5.876;2023-04-24T06:03:56;13.08;69.36
73112;HTU21D;61301;51.956;5.876;2023-04-24T06:06:24;13.02;69.49
73112;HTU21D;61301;51.956;5.876;2023-04-24T06:08:51;13.00;69.59
73112;HTU21D;61301;51.956;5.876;2023-04-24T06:11:17;13.05;69.38
73112;HTU21D;61301;51.956;5.876;2023-04-24T06:13:43;13.18;69.09
73112;HTU21D;61301;51.956;5.876;2023-04-24T06:16:45;13.17;69.04
73112;HTU21D;61301;51.956;5.876;2023-04-24T06:19:24;13.33;68.54
73112;HTU21D;61301;51.956;5.876;2023-04-24T06:21:50;13.40;68.24
73112;HTU21D;61301;51.956;5.876;2023-04-24T06:24:16;13.47;68.17
73112;HTU21D;61301;51.956;5.876;2023-04-24T06:26:42;13.43;68.18
73112;HTU21D;61301;51.956;5.876;2023-04-24T06:29:08;13.32;68.46
73112;HTU21D;61301;51.956;5.876;2023-04-24T06:31:35;13.26;68.77
73112;HTU21D;61301;51.956;5.876;2023-04-24T06:34:03;13.43;68.23
73112;HTU21D;61301;51.956;5.876;2023-04-24T06:36:29;13.45;68.01
73112;HTU21D;61301;51.956;5.876;2023-04-24T06:38:56;13.44;68.20
73112;HTU21D;61301;51.956;5.876;2023-04-24T06:41:23;13.41;68.09
73112;HTU21D;61301;51.956;5.876;2023-04-24T06:43:49;13.50;67.87
73112;HTU21D;61301;51.956;5.876;2023-04-24T06:46:15;13.62;67.51
73112;HTU21D;61301;51.956;5.876;2023-04-24T06:48:41;13.55;67.80
73112;HTU21D;61301;51.956;5.876;2023-04-24T06:51:07;13.63;67.69
73112;HTU21D;61301;51.956;5.876;2023-04-24T06:53:33;13.63;67.75
73112;HTU21D;61301;51.956;5.876;2023-04-24T06:55:59;13.73;67.60
73112;HTU21D;61301;51.956;5.876;2023-04-24T06:58:26;13.64;67.81
73112;HTU21D;61301;51.956;5.876;2023-04-24T07:00:52;13.63;67.62
73112;HTU21D;61301;51.956;5.876;2023-04-24T07:03:18;13.78;67.35
73112;HTU21D;61301;51.956;5.876;2023-04-24T07:05:44;13.75;67.23
73112;HTU21D;61301;51.956;5.876;2023-04-24T07:08:12;13.78;67.20
73112;HTU21D;61301;51.956;5.876;2023-04-24T07:10:38;13.79;67.15
73112;HTU21D;61301;51.956;5.876;2023-04-24T07:13:04;13.91;66.70
73112;HTU21D;61301;51.956;5.876;2023-04-24T07:15:30;13.85;66.58
73112;HTU21D;61301;51.956;5.876;2023-04-24T07:17:57;13.73;66.49
73112;HTU21D;61301;51.956;5.876;2023-04-24T07:20:23;13.81;66.33
73112;HTU21D;61301;51.956;5.876;2023-04-24T07:22:49;13.85;66.36
73112;HTU21D;61301;51.956;5.876;2023-04-24T07:25:17;13.81;66.43
73112;HTU21D;61301;51.956;5.876;2023-04-24T07:27:43;13.73;66.64
73112;HTU21D;61301;51.956;5.876;2023-04-24T07:30:09;13.63;66.85
73112;HTU21D;61301;51.956;5.876;2023-04-24T07:32:35;13.64;66.42
73112;HTU21D;61301;51.956;5.876;2023-04-24T07:35:01;13.60;66.46
73112;HTU21D;61301;51.956;5.876;2023-04-24T07:37:28;13.60;66.56
73112;HTU21D;61301;51.956;5.876;2023-04-24T07:39:54;13.41;66.91
73112;HTU21D;61301;51.956;5.876;2023-04-24T07:42:20;13.45;66.98
73112;HTU21D;61301;51.956;5.876;2023-04-24T07:44:46;13.60;66.88
73112;HTU21D;61301;51.956;5.876;2023-04-24T07:47:13;13.54;66.76
73112;HTU21D;61301;51.956;5.876;2023-04-24T07:49:41;13.29;66.56
73112;HTU21D;61301;51.956;5.876;2023-04-24T07:52:08;13.35;66.41
73112;HTU21D;61301;51.956;5.876;2023-04-24T07:54:34;13.36;66.55
73112;HTU21D;61301;51.956;5.876;2023-04-24T07:57:01;13.36;66.65
73112;HTU21D;61301;51.956;5.876;2023-04-24T07:59:27;13.38;66.07
73112;HTU21D;61301;51.956;5.876;2023-04-24T08:01:53;13.41;65.92
73112;HTU21D;61301;51.956;5.876;2023-04-24T08:04:20;13.36;65.63
73112;HTU21D;61301;51.956;5.876;2023-04-24T08:06:47;13.34;65.39
73112;HTU21D;61301;51.956;5.876;2023-04-24T08:09:13;13.21;64.90
73112;HTU21D;61301;51.956;5.876;2023-04-24T08:11:39;13.25;65.18
73112;HTU21D;61301;51.956;5.876;2023-04-24T08:14:05;13.22;65.18
73112;HTU21D;61301;51.956;5.876;2023-04-24T08:16:32;13.05;65.27
73112;HTU21D;61301;51.956;5.876;2023-04-24T08:18:58;13.14;65.21
73112;HTU21D;61301;51.956;5.876;2023-04-24T08:21:24;13.17;65.18
73112;HTU21D;61301;51.956;5.876;2023-04-24T08:23:52;13.12;65.13
73112;HTU21D;61301;51.956;5.876;2023-04-24T08:26:18;13.16;64.88
73112;HTU21D;61301;51.956;5.876;2023-04-24T08:28:44;13.18;64.54
73112;HTU21D;61301;51.956;5.876;2023-04-24T08:31:11;13.16;64.50
73112;HTU21D;61301;51.956;5.876;2023-04-24T08:33:37;13.20;64.74
73112;HTU21D;61301;51.956;5.876;2023-04-24T08:36:04;13.27;64.68
73112;HTU21D;61301;51.956;5.876;2023-04-24T08:38:31;13.27;64.83
73112;HTU21D;61301;51.956;5.876;2023-04-24T08:40:58;13.17;64.99
73112;HTU21D;61301;51.956;5.876;2023-04-24T08:43:25;13.14;65.24
73112;HTU21D;61301;51.956;5.876;2023-04-24T08:45:52;13.07;65.17
73112;HTU21D;61301;51.956;5.876;2023-04-24T08:48:18;13.12;65.43
73112;HTU21D;61301;51.956;5.876;2023-04-24T08:50:44;13.12;65.29
73112;HTU21D;61301;51.956;5.876;2023-04-24T08:53:11;13.04;65.53
73112;HTU21D;61301;51.956;5.876;2023-04-24T08:55:37;13.10;65.69
73112;HTU21D;61301;51.956;5.876;2023-04-24T08:58:04;13.04;65.93
73112;HTU21D;61301;51.956;5.876;2023-04-24T09:00:30;13.01;66.07
73112;HTU21D;61301;51.956;5.876;2023-04-24T09:02:57;12.90;65.37
73112;HTU21D;61301;51.956;5.876;2023-04-24T09:05:23;12.86;65.43
73112;HTU21D;61301;51.956;5.876;2023-04-24T09:07:53;12.72;64.35
73112;HTU21D;61301;51.956;5.876;2023-04-24T09:10:21;12.86;64.88
73112;HTU21D;61301;51.956;5.876;2023-04-24T09:12:50;12.90;64.88
73112;HTU21D;61301;51.956;5.876;2023-04-24T09:15:16;12.88;64.87
73112;HTU21D;61301;51.956;5.876;2023-04-24T09:17:43;12.96;64.98
73112;HTU21D;61301;51.956;5.876;2023-04-24T09:20:09;13.19;64.82
73112;HTU21D;61301;51.956;5.876;2023-04-24T09:22:36;13.16;64.50
73112;HTU21D;61301;51.956;5.876;2023-04-24T09:25:04;13.07;63.60
73112;HTU21D;61301;51.956;5.876;2023-04-24T09:27:35;13.16;63.95
73112;HTU21D;61301;51.956;5.876;2023-04-24T09:30:02;13.08;64.43
73112;HTU21D;61301;51.956;5.876;2023-04-24T09:32:28;13.05;64.34
73112;HTU21D;61301;51.956;5.876;2023-04-24T09:35:24;13.04;64.40
73112;HTU21D;61301;51.956;5.876;2023-04-24T09:37:51;13.09;63.45
73112;HTU21D;61301;51.956;5.876;2023-04-24T09:40:19;13.12;63.63
73112;HTU21D;61301;51.956;5.876;2023-04-24T09:42:53;13.39;63.34
73112;HTU21D;61301;51.956;5.876;2023-04-24T09:45:20;13.46;61.78
73112;HTU21D;61301;51.956;5.876;2023-04-24T09:47:46;13.61;61.86
73112;HTU21D;61301;51.956;5.876;2023-04-24T09:50:17;13.54;60.64
73112;HTU21D;61301;51.956;5.876;2023-04-24T09:52:45;13.51;60.48
73112;HTU21D;61301;51.956;5.876;2023-04-24T09:55:19;13.40;61.47
73112;HTU21D;61301;51.956;5.876;2023-04-24T09:57:55;13.46;60.54
73112;HTU21D;61301;51.956;5.876;2023-04-24T10:00:28;13.21;60.23
73112;HTU21D;61301;51.956;5.876;2023-04-24T10:05:28;13.41;60.44
73112;HTU21D;61301;51.956;5.876;2023-04-24T10:10:27;13.32;60.06
73112;HTU21D;61301;51.956;5.876;2023-04-24T10:12:54;13.50;60.17
73112;HTU21D;61301;51.956;5.876;2023-04-24T10:15:20;13.50;59.77
73112;HTU21D;61301;51.956;5.876;2023-04-24T10:17:51;13.73;60.06
73112;HTU21D;61301;51.956;5.876;2023-04-24T10:20:22;13.91;59.22
73112;HTU21D;61301;51.956;5.876;2023-04-24T10:22:50;14.17;58.99
73112;HTU21D;61301;51.956;5.876;2023-04-24T10:25:19;14.33;57.84
73112;HTU21D;61301;51.956;5.876;2023-04-24T10:27:47;14.39;57.10
73112;HTU21D;61301;51.956;5.876;2023-04-24T10:30:14;14.41;57.39
73112;HTU21D;61301;51.956;5.876;2023-04-24T10:32:40;14.48;56.88
73112;HTU21D;61301;51.956;5.876;2023-04-24T10:35:07;14.72;57.55
73112;HTU21D;61301;51.956;5.876;2023-04-24T10:37:38;14.73;54.04
73112;HTU21D;61301;51.956;5.876;2023-04-24T10:40:06;14.68;54.44
73112;HTU21D;61301;51.956;5.876;2023-04-24T10:42:34;14.72;53.87
73112;HTU21D;61301;51.956;5.876;2023-04-24T10:45:05;14.70;53.70
73112;HTU21D;61301;51.956;5.876;2023-04-24T10:47:40;14.56;52.96
73112;HTU21D;61301;51.956;5.876;2023-04-24T10:50:10;14.34;52.46
73112;HTU21D;61301;51.956;5.876;2023-04-24T10:52:46;14.47;53.11
73112;HTU21D;61301;51.956;5.876;2023-04-24T10:55:13;14.19;52.74
73112;HTU21D;61301;51.956;5.876;2023-04-24T10:58:01;14.20;52.26
73112;HTU21D;61301;51.956;5.876;2023-04-24T11:00:27;14.26;53.44
73112;HTU21D;61301;51.956;5.876;2023-04-24T11:02:53;14.51;53.33
73112;HTU21D;61301;51.956;5.876;2023-04-24T11:05:20;14.50;53.32
73112;HTU21D;61301;51.956;5.876;2023-04-24T11:08:12;14.28;52.91
73112;HTU21D;61301;51.956;5.876;2023-04-24T11:11:01;13.78;53.50
73112;HTU21D;61301;51.956;5.876;2023-04-24T11:13:28;13.75;54.26
73112;HTU21D;61301;51.956;5.876;2023-04-24T11:16:21;13.74;55.71
73112;HTU21D;61301;51.956;5.876;2023-04-24T11:19:17;13.85;54.95
73112;HTU21D;61301;51.956;5.876;2023-04-24T11:21:45;13.84;54.61
73112;HTU21D;61301;51.956;5.876;2023-04-24T11:27:05;13.81;54.65
73112;HTU21D;61301;51.956;5.876;2023-04-24T11:29:47;13.81;54.35
73112;HTU21D;61301;51.956;5.876;2023-04-24T11:37:39;14.04;53.91
73112;HTU21D;61301;51.956;5.876;2023-04-24T11:40:05;14.26;53.81
73112;HTU21D;61301;51.956;5.876;2023-04-24T11:42:40;14.07;53.59
73112;HTU21D;61301;51.956;5.876;2023-04-24T11:45:10;14.06;54.58
73112;HTU21D;61301;51.956;5.876;2023-04-24T11:47:37;14.25;53.62
73112;HTU21D;61301;51.956;5.876;2023-04-24T11:50:05;14.36;54.73
73112;HTU21D;61301;51.956;5.876;2023-04-24T11:52:33;14.42;53.43
73112;HTU21D;61301;51.956;5.876;2023-04-24T11:55:02;14.43;53.86
73112;HTU21D;61301;51.956;5.876;2023-04-24T11:57:29;14.38;53.47
73112;HTU21D;61301;51.956;5.876;2023-04-24T12:00:00;14.45;53.17
73112;HTU21D;61301;51.956;5.876;2023-04-24T12:02:27;14.41;53.64
73112;HTU21D;61301;51.956;5.876;2023-04-24T12:04:54;14.39;53.72
73112;HTU21D;61301;51.956;5.876;2023-04-24T12:07:21;14.29;53.86
73112;HTU21D;61301;51.956;5.876;2023-04-24T12:09:49;14.36;55.03
73112;HTU21D;61301;51.956;5.876;2023-04-24T12:12:18;14.28;55.17
73112;HTU21D;61301;51.956;5.876;2023-04-24T12:14:48;13.92;56.17
73112;HTU21D;61301;51.956;5.876;2023-04-24T12:17:16;13.97;57.04
73112;HTU21D;61301;51.956;5.876;2023-04-24T12:19:47;13.96;57.06
73112;HTU21D;61301;51.956;5.876;2023-04-24T12:22:13;14.03;56.89
73112;HTU21D;61301;51.956;5.876;2023-04-24T12:25:02;13.86;56.35
73112;HTU21D;61301;51.956;5.876;2023-04-24T12:27:33;13.90;56.90
73112;HTU21D;61301;51.956;5.876;2023-04-24T12:30:00;13.84;56.53
73112;HTU21D;61301;51.956;5.876;2023-04-24T12:32:27;13.90;56.32
73112;HTU21D;61301;51.956;5.876;2023-04-24T12:34:55;13.99;55.13
73112;HTU21D;61301;51.956;5.876;2023-04-24T12:37:26;14.11;54.84
73112;HTU21D;61301;51.956;5.876;2023-04-24T12:40:11;14.25;55.42
73112;HTU21D;61301;51.956;5.876;2023-04-24T12:42:55;14.35;54.56
73112;HTU21D;61301;51.956;5.876;2023-04-24T12:45:21;14.10;54.52
73112;HTU21D;61301;51.956;5.876;2023-04-24T12:47:49;14.11;54.35
73112;HTU21D;61301;51.956;5.876;2023-04-24T12:50:15;14.19;54.64
73112;HTU21D;61301;51.956;5.876;2023-04-24T12:52:42;14.09;54.18
73112;HTU21D;61301;51.956;5.876;2023-04-24T12:55:09;14.06;53.97
73112;HTU21D;61301;51.956;5.876;2023-04-24T12:57:37;14.25;54.21
73112;HTU21D;61301;51.956;5.876;2023-04-24T13:00:04;14.13;53.63
73112;HTU21D;61301;51.956;5.876;2023-04-24T13:02:31;14.11;53.39
73112;HTU21D;61301;51.956;5.876;2023-04-24T13:04:58;14.19;54.19
73112;HTU21D;61301;51.956;5.876;2023-04-24T13:07:24;14.33;54.62
73112;HTU21D;61301;51.956;5.876;2023-04-24T13:09:51;14.33;54.36
73112;HTU21D;61301;51.956;5.876;2023-04-24T13:12:17;14.32;53.93
73112;HTU21D;61301;51.956;5.876;2023-04-24T13:14:44;14.25;53.23
73112;HTU21D;61301;51.956;5.876;2023-04-24T13:17:10;14.26;53.69
73112;HTU21D;61301;51.956;5.876;2023-04-24T13:19:41;14.28;53.56
73112;HTU21D;61301;51.956;5.876;2023-04-24T13:22:11;14.32;53.01
73112;HTU21D;61301;51.956;5.876;2023-04-24T13:24:38;14.23;53.06
73112;HTU21D;61301;51.956;5.876;2023-04-24T13:27:06;14.34;53.68
73112;HTU21D;61301;51.956;5.876;2023-04-24T13:29:32;14.40;52.59
73112;HTU21D;61301;51.956;5.876;2023-04-24T13:31:59;14.44;52.56
73112;HTU21D;61301;51.956;5.876;2023-04-24T13:34:26;14.36;50.78
73112;HTU21D;61301;51.956;5.876;2023-04-24T13:36:53;14.24;50.66
73112;HTU21D;61301;51.956;5.876;2023-04-24T13:39:20;14.24;50.31
73112;HTU21D;61301;51.956;5.876;2023-04-24T13:41:46;14.28;51.49
73112;HTU21D;61301;51.956;5.876;2023-04-24T13:44:15;14.40;51.02
73112;HTU21D;61301;51.956;5.876;2023-04-24T13:46:42;14.50;50.32
73112;HTU21D;61301;51.956;5.876;2023-04-24T13:49:13;14.59;50.53
73112;HTU21D;61301;51.956;5.876;2023-04-24T13:51:40;14.71;50.86
73112;HTU21D;61301;51.956;5.876;2023-04-24T13:54:06;14.83;50.49
73112;HTU21D;61301;51.956;5.876;2023-04-24T13:56:33;14.98;50.66
73112;HTU21D;61301;51.956;5.876;2023-04-24T13:58:59;15.00;49.20
73112;HTU21D;61301;51.956;5.876;2023-04-24T14:01:25;14.95;49.10
73112;HTU21D;61301;51.956;5.876;2023-04-24T14:03:55;14.80;47.80
73112;HTU21D;61301;51.956;5.876;2023-04-24T14:06:21;14.96;48.53
73112;HTU21D;61301;51.956;5.876;2023-04-24T14:08:48;15.08;46.44
73112;HTU21D;61301;51.956;5.876;2023-04-24T14:11:15;15.29;47.37
73112;HTU21D;61301;51.956;5.876;2023-04-24T14:13:41;15.30;46.10
73112;HTU21D;61301;51.956;5.876;2023-04-24T14:16:08;15.32;45.61
73112;HTU21D;61301;51.956;5.876;2023-04-24T14:18:34;15.16;45.96
73112;HTU21D;61301;51.956;5.876;2023-04-24T14:21:00;14.95;45.98
73112;HTU21D;61301;51.956;5.876;2023-04-24T14:23:27;14.94;46.84
73112;HTU21D;61301;51.956;5.876;2023-04-24T14:25:53;15.00;46.79
73112;HTU21D;61301;51.956;5.876;2023-04-24T14:28:19;14.93;45.15
73112;HTU21D;61301;51.956;5.876;2023-04-24T14:30:46;15.00;45.94
73112;HTU21D;61301;51.956;5.876;2023-04-24T14:33:13;15.12;45.83
73112;HTU21D;61301;51.956;5.876;2023-04-24T14:35:40;15.37;46.41
73112;HTU21D;61301;51.956;5.876;2023-04-24T14:38:08;15.57;45.45
73112;HTU21D;61301;51.956;5.876;2023-04-24T14:40:34;15.46;44.69
73112;HTU21D;61301;51.956;5.876;2023-04-24T14:43:01;15.78;45.17
73112;HTU21D;61301;51.956;5.876;2023-04-24T14:45:27;15.80;43.02
73112;HTU21D;61301;51.956;5.876;2023-04-24T14:47:53;15.82;43.76
73112;HTU21D;61301;51.956;5.876;2023-04-24T14:50:20;15.75;43.02
73112;HTU21D;61301;51.956;5.876;2023-04-24T14:52:46;15.81;43.64
73112;HTU21D;61301;51.956;5.876;2023-04-24T14:55:12;15.59;43.80
73112;HTU21D;61301;51.956;5.876;2023-04-24T14:57:38;15.77;45.05
73112;HTU21D;61301;51.956;5.876;2023-04-24T15:00:06;15.67;43.54
73112;HTU21D;61301;51.956;5.876;2023-04-24T15:02:34;15.34;43.07
73112;HTU21D;61301;51.956;5.876;2023-04-24T15:05:03;15.23;43.64
73112;HTU21D;61301;51.956;5.876;2023-04-24T15:07:30;15.31;44.64
73112;HTU21D;61301;51.956;5.876;2023-04-24T15:09:56;15.17;44.25
73112;HTU21D;61301;51.956;5.876;2023-04-24T15:12:22;15.08;44.93
73112;HTU21D;61301;51.956;5.876;2023-04-24T15:14:48;15.18;45.22
73112;HTU21D;61301;51.956;5.876;2023-04-24T15:17:14;15.23;45.10
73112;HTU21D;61301;51.956;5.876;2023-04-24T15:19:40;15.30;44.91
73112;HTU21D;61301;51.956;5.876;2023-04-24T15:22:06;15.34;44.87
73112;HTU21D;61301;51.956;5.876;2023-04-24T15:24:32;15.26;45.42
73112;HTU21D;61301;51.956;5.876;2023-04-24T15:26:59;15.33;45.97
73112;HTU21D;61301;51.956;5.876;2023-04-24T15:29:25;15.21;45.94
73112;HTU21D;61301;51.956;5.876;2023-04-24T15:31:52;15.16;45.49
73112;HTU21D;61301;51.956;5.876;2023-04-24T15:34:18;15.07;45.96